Time;durP1;ratioP1;P1;durP2;ratioP2;P2;SDS_P1;SDS_P2;PMS_P1;PMS_P2;Temp;Humidity;BMP_temperature;BMP_pressure;BME280_temperature;BME280_humidity;BME280_pressure;Samples;Min_cycle;Max_cycle;Signal;HPM_P1;HPM_P2
2022/01/24 00:00:56;;;;;;;196.18;62.70;;;;;;;-1.26;73.73;100182.28;5111457;28;20027;-74
2022/01/24 00:03:21;;;;;;;170.68;58.58;;;;;;;-1.27;73.63;100178.72;5111230;28;20074;-74
2022/01/24 00:05:47;;;;;;;168.75;57.47;;;;;;;-1.33;73.32;100182.13;5089973;28;20437;-73
2022/01/24 00:08:13;;;;;;;180.18;60.55;;;;;;;-1.31;73.82;100182.78;5107544;27;20019;-73
2022/01/24 00:10:40;;;;;;;216.48;64.95;;;;;;;-1.24;73.74;100174.88;5111561;28;20045;-74
2022/01/24 00:18:08;;;;;;;201.20;63.22;;;;;;;-1.16;73.89;100188.25;5111469;28;20065;-73
2022/01/24 00:28:45;;;;;;;212.20;68.93;;;;;;;-1.23;73.96;100176.53;5109409;28;20556;-73
2022/01/24 00:31:11;;;;;;;187.40;63.33;;;;;;;-1.27;73.30;100167.97;5110778;28;20048;-73
2022/01/24 00:33:36;;;;;;;185.30;63.03;;;;;;;-1.32;73.54;100167.66;5111013;28;20118;-74
2022/01/24 00:36:02;;;;;;;165.40;56.28;;;;;;;-1.37;73.66;100178.97;5110897;28;20027;-74
2022/01/24 00:38:27;;;;;;;172.52;57.42;;;;;;;-1.33;74.02;100179.44;5110941;28;20040;-74
2022/01/24 00:40:52;;;;;;;207.70;66.15;;;;;;;-1.30;73.68;100175.56;5111369;28;20129;-74
2022/01/24 00:56:11;;;;;;;159.85;55.58;;;;;;;-1.40;73.35;100194.59;5111206;28;20023;-74
2022/01/24 00:58:37;;;;;;;184.60;64.60;;;;;;;-1.37;73.73;100196.94;5092490;28;20544;-74
2022/01/24 01:01:03;;;;;;;199.82;72.55;;;;;;;-1.32;73.71;100191.88;5092365;28;20028;-74
2022/01/24 01:03:29;;;;;;;209.38;77.05;;;;;;;-1.25;73.70;100189.34;5110572;28;20085;-74
2022/01/24 01:19:27;;;;;;;205.48;76.60;;;;;;;-1.16;73.72;100166.72;5109336;28;20043;-74
2022/01/24 01:21:53;;;;;;;203.48;74.25;;;;;;;-1.16;73.95;100163.19;5073913;28;20028;-74
2022/01/24 01:24:19;;;;;;;203.35;73.45;;;;;;;-1.21;73.96;100166.41;5109541;28;20059;-73
2022/01/24 01:26:53;;;;;;;196.98;70.05;;;;;;;-1.26;73.72;100160.75;5110272;28;20076;-74
2022/01/24 01:29:27;;;;;;;213.02;79.00;;;;;;;-1.32;73.41;100150.69;5108196;28;20019;-74
2022/01/24 01:32:08;;;;;;;209.10;77.13;;;;;;;-1.35;73.68;100151.84;5109869;28;20035;-74
2022/01/24 01:56:04;;;;;;;167.05;61.95;;;;;;;-1.46;73.56;100171.94;5109756;28;20043;-73
2022/01/24 01:58:30;;;;;;;161.07;61.10;;;;;;;-1.45;73.52;100164.72;5109579;28;20023;-73
2022/01/24 02:00:59;;;;;;;175.77;62.88;;;;;;;-1.43;73.62;100163.50;5109945;28;20360;-72
2022/01/24 02:03:26;;;;;;;160.20;59.17;;;;;;;-1.45;73.10;100162.03;5109362;28;20474;-73
2022/01/24 02:05:52;;;;;;;169.35;60.63;;;;;;;-1.57;73.08;100161.53;5110038;28;20106;-73
2022/01/24 02:08:18;;;;;;;165.02;62.20;;;;;;;-1.58;73.10;100163.41;5109493;28;20110;-73
2022/01/24 02:10:44;;;;;;;151.32;55.90;;;;;;;-1.57;73.56;100162.41;5109122;28;20084;-73
2022/01/24 02:13:11;;;;;;;165.20;61.88;;;;;;;-1.63;72.94;100170.34;5109664;28;20076;-72
2022/01/24 02:21:05;;;;;;;149.02;56.40;;;;;;;-1.76;73.01;100170.84;5109814;28;20040;-72
2022/01/24 02:25:58;;;;;;;146.75;58.25;;;;;;;-1.69;73.13;100172.72;5108941;28;20051;-73
2022/01/24 02:28:25;;;;;;;167.23;64.10;;;;;;;-1.68;73.39;100168.16;5110175;28;20042;-73
2022/01/24 02:33:30;;;;;;;132.50;52.83;;;;;;;-1.89;72.70;100163.34;5109564;28;20110;-73
2022/01/24 02:35:55;;;;;;;138.77;52.00;;;;;;;-2.00;72.83;100161.88;5091262;28;20040;-73
2022/01/24 02:38:39;;;;;;;145.15;56.70;;;;;;;-2.08;72.84;100165.41;5109212;28;20023;-73
2022/01/24 02:49:25;;;;;;;133.30;51.55;;;;;;;-2.15;73.43;100189.44;5107984;28;20043;-72
2022/01/24 02:51:50;;;;;;;135.65;52.47;;;;;;;-2.19;73.50;100195.34;5109822;28;20024;-73
2022/01/24 02:54:32;;;;;;;162.90;61.47;;;;;;;-2.29;73.05;100199.03;5109662;28;20024;-73
2022/01/24 02:56:57;;;;;;;174.85;61.13;;;;;;;-2.30;73.51;100201.91;5109685;28;20030;-73
2022/01/24 02:59:24;;;;;;;157.93;57.38;;;;;;;-2.36;73.29;100200.72;5110133;28;20457;-73
2022/01/24 03:01:50;;;;;;;156.05;59.88;;;;;;;-2.39;73.06;100206.41;5109989;28;20102;-72
2022/01/24 03:04:15;;;;;;;164.63;62.17;;;;;;;-2.47;73.36;100209.13;5109834;28;20098;-72
2022/01/24 03:06:42;;;;;;;153.55;60.67;;;;;;;-2.49;73.41;100209.28;5110105;28;20046;-72
2022/01/24 03:09:08;;;;;;;157.82;56.40;;;;;;;-2.45;73.52;100204.44;5110636;28;20095;-71
2022/01/24 03:14:20;;;;;;;154.10;57.40;;;;;;;-2.43;73.54;100208.63;5110058;28;20078;-73
2022/01/24 03:16:46;;;;;;;152.43;56.58;;;;;;;-2.44;73.34;100206.09;5109354;28;20043;-72
2022/01/24 03:19:12;;;;;;;151.63;58.50;;;;;;;-2.45;73.56;100209.81;5110290;28;20035;-72
2022/01/24 03:21:38;;;;;;;136.05;56.83;;;;;;;-2.48;73.35;100210.97;5088196;28;20267;-71
2022/01/24 03:24:03;;;;;;;121.88;51.65;;;;;;;-2.52;73.29;100220.38;5108718;28;20034;-70
2022/01/24 03:26:29;;;;;;;119.32;49.03;;;;;;;-2.58;73.39;100215.66;5108991;28;20049;-69
2022/01/24 03:28:54;;;;;;;123.82;51.83;;;;;;;-2.57;73.69;100211.97;5108623;28;20442;-70
2022/01/24 03:31:20;;;;;;;132.35;51.15;;;;;;;-2.57;73.21;100214.66;5106056;28;20398;-71
2022/01/24 03:33:45;;;;;;;134.68;55.50;;;;;;;-2.53;73.82;100215.19;5091088;28;20119;-72
2022/01/24 03:36:11;;;;;;;134.75;52.38;;;;;;;-2.43;73.80;100223.88;5108238;28;20111;-72
2022/01/24 03:38:36;;;;;;;127.35;52.00;;;;;;;-2.45;73.47;100210.63;5094425;28;20052;-72
2022/01/24 03:41:02;;;;;;;143.07;63.03;;;;;;;-2.46;73.48;100219.69;5112230;28;20375;-72
2022/01/24 03:43:28;;;;;;;168.90;73.80;;;;;;;-2.48;73.53;100226.25;5111886;28;20097;-72
2022/01/24 03:46:13;;;;;;;137.05;56.45;;;;;;;-2.52;73.48;100217.69;5112170;28;20361;-72
2022/01/24 03:51:06;;;;;;;120.55;48.15;;;;;;;-2.63;73.15;100215.31;5110146;28;20088;-72
2022/01/24 03:53:32;;;;;;;109.00;43.10;;;;;;;-2.68;72.99;100206.94;5108796;28;20039;-71
2022/01/24 03:55:57;;;;;;;105.80;47.13;;;;;;;-2.61;73.37;100208.78;5090924;28;20383;-71
2022/01/24 03:58:22;;;;;;;109.38;44.63;;;;;;;-2.51;73.92;100210.47;5109126;28;20467;-72
2022/01/24 04:00:48;;;;;;;141.07;53.85;;;;;;;-2.52;73.50;100214.16;5109646;28;20027;-72
2022/01/24 04:03:14;;;;;;;122.30;48.97;;;;;;;-2.50;73.51;100214.84;5110240;28;20032;-72
2022/01/24 04:05:43;;;;;;;97.97;41.03;;;;;;;-2.50;73.69;100217.53;5112752;28;20027;-72
2022/01/24 04:08:09;;;;;;;101.78;43.60;;;;;;;-2.49;73.33;100211.97;5113244;28;20027;-73
2022/01/24 04:10:41;;;;;;;109.70;46.47;;;;;;;-2.51;73.48;100215.84;5110680;28;20038;-72
2022/01/24 04:13:21;;;;;;;100.20;42.03;;;;;;;-2.52;73.37;100211.47;5108072;28;20023;-70
2022/01/24 04:16:09;;;;;;;112.88;45.90;;;;;;;-2.50;73.50;100214.84;5111934;28;20028;-72
2022/01/24 04:24:02;;;;;;;108.22;46.00;;;;;;;-2.55;73.53;100224.25;5110914;28;20035;-72
2022/01/24 04:26:28;;;;;;;116.47;47.13;;;;;;;-2.52;73.29;100227.59;5112811;28;20538;-72
2022/01/24 04:28:54;;;;;;;102.18;43.58;;;;;;;-2.54;73.42;100233.13;5112520;28;20491;-72
2022/01/24 04:31:20;;;;;;;105.93;43.80;;;;;;;-2.60;73.18;100231.97;5112488;28;20115;-72
2022/01/24 04:33:46;;;;;;;106.43;45.78;;;;;;;-2.61;73.03;100241.03;5111756;28;20032;-72
2022/01/24 04:36:11;;;;;;;111.40;46.03;;;;;;;-2.65;73.33;100238.84;5112413;28;20406;-72
2022/01/24 04:38:37;;;;;;;116.68;47.90;;;;;;;-2.63;73.08;100234.13;5112383;28;20024;-72
2022/01/24 04:41:07;;;;;;;123.57;51.47;;;;;;;-2.55;73.44;100244.88;5111879;28;20858;-72
2022/01/24 04:51:29;;;;;;;112.90;46.00;;;;;;;-2.79;72.74;100238.47;5111561;28;20100;-71
2022/01/24 04:56:47;;;;;;;97.32;40.55;;;;;;;-2.99;72.77;100240.59;5079968;28;20522;-72
2022/01/24 04:59:12;;;;;;;90.07;37.13;;;;;;;-3.05;72.80;100239.41;5092297;28;20082;-72
2022/01/24 05:01:38;;;;;;;98.50;38.42;;;;;;;-3.22;72.47;100243.06;5090117;28;20035;-72
2022/01/24 05:04:03;;;;;;;94.18;38.92;;;;;;;-3.47;71.87;100234.91;5110985;28;20031;-72
2022/01/24 05:06:29;;;;;;;108.40;43.00;;;;;;;-3.55;72.14;100242.91;5092690;28;20396;-71
2022/01/24 05:08:54;;;;;;;143.00;55.90;;;;;;;-3.49;72.58;100243.09;5111313;28;20031;-71
2022/01/24 05:11:32;;;;;;;124.28;47.20;;;;;;;-3.42;73.12;100251.34;5111539;28;20041;-71
2022/01/24 05:24:48;;;;;;;82.80;35.85;;;;;;;-3.45;72.77;100252.50;5111395;28;20031;-74
2022/01/24 05:27:14;;;;;;;69.97;31.85;;;;;;;-3.47;72.58;100251.00;5089904;28;20034;-74
2022/01/24 05:29:39;;;;;;;75.28;33.20;;;;;;;-3.55;72.76;100254.47;5111936;28;20072;-74
2022/01/24 05:32:07;;;;;;;71.53;31.98;;;;;;;-3.59;72.46;100253.09;5110612;28;20036;-73
2022/01/24 05:34:33;;;;;;;84.05;38.08;;;;;;;-3.80;72.15;100253.47;5111072;28;20807;-74
2022/01/24 05:36:58;;;;;;;77.13;33.60;;;;;;;-3.91;72.19;100247.41;5092644;28;20123;-73
2022/01/24 05:39:24;;;;;;;74.72;32.83;;;;;;;-3.97;72.27;100255.22;5111182;28;20387;-74
2022/01/24 05:41:49;;;;;;;75.18;32.47;;;;;;;-4.09;72.17;100251.97;5090979;28;20031;-73
2022/01/24 05:44:14;;;;;;;89.38;36.55;;;;;;;-4.21;71.97;100252.19;5089491;28;20377;-73
2022/01/24 05:46:40;;;;;;;87.55;38.10;;;;;;;-4.27;72.00;100250.13;5110909;28;20039;-73
2022/01/24 05:49:06;;;;;;;87.32;38.92;;;;;;;-4.34;72.09;100259.81;5110266;28;20039;-73
2022/01/24 05:51:31;;;;;;;86.68;37.83;;;;;;;-4.41;72.30;100256.06;5109567;28;20070;-74
2022/01/24 05:53:58;;;;;;;88.35;38.50;;;;;;;-4.51;72.10;100259.66;5110330;28;20520;-74
2022/01/24 05:56:23;;;;;;;87.40;38.97;;;;;;;-4.59;72.13;100259.56;5110199;28;20123;-74
2022/01/24 05:58:51;;;;;;;80.57;36.40;;;;;;;-4.66;71.90;100266.53;5110592;28;20102;-73
2022/01/24 06:01:17;;;;;;;84.53;37.15;;;;;;;-4.73;71.67;100254.78;5110057;28;20043;-74
2022/01/24 06:03:42;;;;;;;84.88;37.47;;;;;;;-4.79;71.79;100262.41;5108608;28;20055;-74
2022/01/24 06:06:08;;;;;;;74.20;33.80;;;;;;;-4.85;71.79;100264.84;5108781;28;20084;-74
2022/01/24 06:08:34;;;;;;;80.53;34.35;;;;;;;-4.94;71.95;100271.94;5091763;28;20145;-73
2022/01/24 06:11:00;;;;;;;86.50;37.08;;;;;;;-4.99;71.83;100275.09;5110146;28;20031;-75
2022/01/24 06:13:26;;;;;;;87.97;38.05;;;;;;;-5.02;71.83;100277.19;5109395;28;20019;-73
2022/01/24 06:15:52;;;;;;;92.13;37.13;;;;;;;-5.04;72.48;100273.81;5109422;28;20055;-75
2022/01/24 06:18:20;;;;;;;95.50;39.92;;;;;;;-5.05;72.35;100274.81;5107897;28;20054;-70
2022/01/24 06:20:45;;;;;;;88.60;38.20;;;;;;;-5.09;71.77;100276.97;5108358;28;20031;-70
2022/01/24 06:23:14;;;;;;;87.78;37.10;;;;;;;-5.10;72.03;100272.59;5108069;28;20474;-71
2022/01/24 06:25:40;;;;;;;83.95;35.55;;;;;;;-5.08;72.04;100279.47;5109286;28;20023;-71
2022/01/24 06:28:05;;;;;;;91.60;38.47;;;;;;;-5.08;72.32;100282.16;5108399;28;20491;-69
2022/01/24 06:30:31;;;;;;;93.28;39.88;;;;;;;-5.02;71.84;100288.75;5106288;28;20036;-73
2022/01/24 06:32:56;;;;;;;87.20;35.60;;;;;;;-5.02;72.02;100283.41;5106008;28;20135;-69
2022/01/24 06:35:22;;;;;;;91.15;39.28;;;;;;;-5.03;71.82;100299.59;5109180;28;20086;-70
2022/01/24 06:37:47;;;;;;;98.45;39.70;;;;;;;-4.98;72.07;100295.50;5108762;28;20028;-69
2022/01/24 06:40:13;;;;;;;98.40;41.85;;;;;;;-4.89;72.16;100300.94;5109203;28;20020;-69
2022/01/24 06:42:38;;;;;;;103.78;41.85;;;;;;;-4.82;72.30;100305.53;5108515;28;20044;-70
2022/01/24 06:45:05;;;;;;;86.72;38.25;;;;;;;-4.76;72.17;100306.75;5090511;28;20499;-69
2022/01/24 06:47:30;;;;;;;94.13;41.33;;;;;;;-4.73;72.49;100311.81;5108775;28;20031;-70
2022/01/24 06:49:56;;;;;;;100.43;40.55;;;;;;;-4.73;72.23;100316.34;5110288;28;20388;-70
2022/01/24 06:52:21;;;;;;;81.43;35.20;;;;;;;-4.72;71.98;100310.81;5109515;28;20032;-70
2022/01/24 06:54:47;;;;;;;76.85;35.50;;;;;;;-4.70;72.09;100311.53;5110121;28;20035;-70
2022/01/24 06:57:14;;;;;;;101.22;46.25;;;;;;;-4.63;71.92;100314.44;5110471;28;20019;-69
2022/01/24 06:59:42;;;;;;;107.40;49.65;;;;;;;-4.52;72.37;100319.56;5110798;28;20111;-70
2022/01/24 07:02:09;;;;;;;102.22;48.45;;;;;;;-4.41;72.36;100325.72;5111196;28;20024;-70
2022/01/24 07:04:36;;;;;;;99.03;49.70;;;;;;;-4.31;72.28;100326.47;5109902;28;20064;-70
2022/01/24 07:07:03;;;;;;;98.35;47.40;;;;;;;-4.23;72.09;100331.06;5110513;28;20019;-70
2022/01/24 07:09:29;;;;;;;112.97;50.83;;;;;;;-4.15;71.91;100322.25;5112073;27;20035;-67
2022/01/24 07:11:54;;;;;;;105.43;48.95;;;;;;;-4.11;72.29;100327.16;5113356;28;20020;-70
2022/01/24 07:14:20;;;;;;;92.13;46.28;;;;;;;-4.05;72.17;100325.69;5112379;28;20019;-70
2022/01/24 07:17:04;;;;;;;110.20;52.65;;;;;;;-3.98;71.78;100328.59;5113336;28;20034;-68
2022/01/24 07:19:31;;;;;;;98.95;47.50;;;;;;;-3.87;72.16;100335.56;5113878;28;20030;-71
2022/01/24 07:21:59;;;;;;;100.05;47.72;;;;;;;-3.77;72.25;100338.97;5093797;28;20545;-70
2022/01/24 07:24:25;;;;;;;105.93;48.65;;;;;;;-3.67;71.90;100341.59;5093039;28;20392;-70
2022/01/24 07:26:51;;;;;;;110.60;49.15;;;;;;;-3.60;72.44;100334.56;5113112;28;20114;-71
2022/01/24 07:29:17;;;;;;;121.40;55.08;;;;;;;-3.51;72.42;100341.66;5113599;28;20058;-71
2022/01/24 07:31:43;;;;;;;93.40;43.42;;;;;;;-3.50;71.54;100342.53;5092104;28;20122;-71
2022/01/24 07:34:08;;;;;;;115.35;47.70;;;;;;;-3.46;72.07;100335.81;5113021;28;20173;-71
2022/01/24 07:36:34;;;;;;;96.47;45.97;;;;;;;-3.39;72.08;100333.38;5094199;28;20043;-71
2022/01/24 07:38:59;;;;;;;91.15;40.00;;;;;;;-3.41;71.63;100335.38;5113482;28;20027;-71
2022/01/24 07:41:28;;;;;;;96.60;41.95;;;;;;;-3.44;71.08;100336.50;5113128;28;20118;-70
2022/01/24 07:43:55;;;;;;;104.25;43.10;;;;;;;-3.35;71.38;100345.47;5112699;28;20043;-70
2022/01/24 07:46:20;;;;;;;102.22;44.78;;;;;;;-3.25;71.90;100340.81;5113790;28;20524;-70
2022/01/24 07:48:46;;;;;;;104.18;45.00;;;;;;;-3.18;71.59;100333.81;5107446;27;20027;-72
2022/01/24 07:51:12;;;;;;;101.45;46.65;;;;;;;-3.11;71.41;100331.34;5113372;28;20063;-72
2022/01/24 07:53:37;;;;;;;102.60;45.30;;;;;;;-3.06;71.49;100342.44;5094244;28;20035;-69
2022/01/24 07:56:04;;;;;;;97.93;45.85;;;;;;;-3.03;71.27;100338.59;5112594;28;20028;-69
2022/01/24 07:58:30;;;;;;;103.30;49.17;;;;;;;-2.99;71.48;100335.41;5112616;28;20033;-70
2022/01/24 08:00:56;;;;;;;92.07;41.28;;;;;;;-2.93;70.91;100338.44;5113196;28;20094;-68
2022/01/24 08:03:21;;;;;;;109.20;50.45;;;;;;;-2.90;71.15;100338.13;5112398;28;20774;-69
2022/01/24 08:05:47;;;;;;;110.40;49.13;;;;;;;-2.81;70.99;100328.25;5112567;28;20431;-69
2022/01/24 08:08:12;;;;;;;110.85;46.97;;;;;;;-2.74;70.90;100340.03;5092890;28;20028;-68
2022/01/24 08:10:38;;;;;;;120.80;48.92;;;;;;;-2.70;70.99;100347.63;5094188;28;20031;-68
2022/01/24 08:13:04;;;;;;;143.05;55.53;;;;;;;-2.59;70.84;100341.09;5112190;28;20070;-68
2022/01/24 08:15:29;;;;;;;118.20;50.25;;;;;;;-2.53;70.68;100347.66;5110280;28;20063;-67
2022/01/24 08:17:55;;;;;;;110.97;47.10;;;;;;;-2.40;70.46;100334.59;5110927;27;20038;-68
2022/01/24 08:20:21;;;;;;;119.32;50.35;;;;;;;-2.27;70.69;100342.16;5108188;28;20361;-72
2022/01/24 08:22:47;;;;;;;106.05;45.15;;;;;;;-2.18;70.54;100332.25;5112518;28;20069;-69
2022/01/24 08:25:14;;;;;;;106.45;48.28;;;;;;;-2.13;70.35;100356.78;5094851;28;20475;-71
2022/01/24 08:27:40;;;;;;;110.88;48.25;;;;;;;-2.08;70.31;100345.56;5093489;28;20413;-72
2022/01/24 08:30:09;;;;;;;103.65;46.38;;;;;;;-2.00;70.42;100355.47;5109986;27;20103;-71
2022/01/24 08:32:34;;;;;;;94.82;40.78;;;;;;;-1.92;70.61;100339.34;5108889;28;20042;-71
2022/01/24 08:35:00;;;;;;;104.35;46.17;;;;;;;-1.90;70.09;100348.09;5109760;27;20020;-70
2022/01/24 08:37:25;;;;;;;101.20;44.17;;;;;;;-1.85;70.12;100348.44;5093430;28;20485;-70
2022/01/24 08:39:51;;;;;;;102.15;45.35;;;;;;;-1.77;70.21;100347.56;5113123;27;20034;-69
2022/01/24 08:42:24;;;;;;;96.75;43.28;;;;;;;-1.69;70.28;100342.19;5110732;27;20027;-69
2022/01/24 08:47:35;;;;;;;99.82;45.80;;;;;;;-1.48;70.39;100354.28;5110937;28;20027;-68
2022/01/24 08:50:00;;;;;;;100.57;47.15;;;;;;;-1.36;70.49;100349.34;5111679;27;20041;-69
2022/01/24 08:52:26;;;;;;;110.60;49.53;;;;;;;-1.31;69.97;100348.88;5110127;27;20104;-68
2022/01/24 08:54:52;;;;;;;101.68;47.35;;;;;;;-1.23;70.25;100352.38;5113949;27;20372;-68
2022/01/24 08:57:25;;;;;;;112.35;49.17;;;;;;;-1.16;70.31;100351.69;5092689;27;20061;-69
2022/01/24 08:59:52;;;;;;;114.63;49.83;;;;;;;-1.08;70.14;100357.06;5111817;27;20039;-68
2022/01/24 09:02:18;;;;;;;105.53;46.88;;;;;;;-1.03;69.92;100357.38;5108165;27;20027;-66
2022/01/24 09:04:44;;;;;;;116.60;48.25;;;;;;;-1.08;69.44;100362.44;5109749;27;20422;-70
2022/01/24 09:07:10;;;;;;;101.53;42.53;;;;;;;-0.99;69.48;100363.25;5110289;27;20039;-75
2022/01/24 09:09:36;;;;;;;120.00;47.33;;;;;;;-1.03;69.58;100357.38;5111909;27;20038;-67
2022/01/24 09:12:04;;;;;;;105.35;46.45;;;;;;;-0.98;69.48;100362.22;5110364;28;20035;-70
2022/01/24 09:14:29;;;;;;;105.82;46.97;;;;;;;-0.92;69.75;100356.97;5106018;27;20031;-70
2022/01/24 09:16:55;;;;;;;103.35;48.20;;;;;;;-0.81;69.33;100350.38;5107539;27;20034;-68
2022/01/24 09:19:21;;;;;;;125.70;55.20;;;;;;;-0.65;69.29;100343.22;5091025;27;20109;-68
2022/01/24 09:21:46;;;;;;;123.45;52.88;;;;;;;-0.51;69.74;100338.94;5109933;27;20026;-69
2022/01/24 09:24:12;;;;;;;124.32;52.70;;;;;;;-0.33;69.87;100344.91;5110386;28;20028;-72
2022/01/24 09:26:38;;;;;;;132.55;56.10;;;;;;;-0.20;69.41;100347.00;5091246;28;20036;-70
2022/01/24 09:29:03;;;;;;;114.22;52.15;;;;;;;-0.16;69.41;100345.66;5110652;27;20035;-70
2022/01/24 09:31:29;;;;;;;124.30;52.70;;;;;;;-0.09;68.64;100351.16;5108903;28;20035;-72
2022/01/24 09:33:55;;;;;;;122.38;55.53;;;;;;;0.06;69.55;100347.69;5109523;28;20106;-69
2022/01/24 09:36:21;;;;;;;123.32;51.10;;;;;;;0.14;68.80;100355.72;5091120;28;20478;-70
2022/01/24 09:38:46;;;;;;;114.80;49.13;;;;;;;0.21;68.40;100348.56;5109218;28;20027;-71
2022/01/24 09:41:15;;;;;;;116.60;48.67;;;;;;;0.25;68.74;100352.56;5092509;28;20038;-68
2022/01/24 09:43:46;;;;;;;82.73;37.13;;;;;;;0.23;68.32;100364.56;5090634;28;20048;-68
2022/01/24 09:46:12;;;;;;;;;;;;;;;0.33;69.11;100364.31;5110547;28;20039;-71
2022/01/24 09:48:39;;;;;;;109.13;46.15;;;;;;;0.21;68.09;100348.56;5111048;28;19943;-70
2022/01/24 09:51:05;;;;;;;81.22;36.95;;;;;;;0.19;68.01;100342.53;5095230;28;20043;-69
2022/01/24 09:53:30;;;;;;;63.63;29.13;;;;;;;0.16;67.45;100345.59;5112471;28;20028;-69
2022/01/24 09:55:59;;;;;;;61.03;27.83;;;;;;;0.21;67.85;100348.56;5096421;28;20051;-71
2022/01/24 09:58:24;;;;;;;55.55;25.88;;;;;;;0.31;67.55;100347.47;5110919;28;20031;-68
2022/01/24 10:00:50;;;;;;;69.55;32.47;;;;;;;0.32;67.28;100333.81;5115168;27;20471;-68
2022/01/24 10:03:15;;;;;;;73.00;32.30;;;;;;;0.32;67.30;100333.81;5108793;28;20042;-69
2022/01/24 10:05:42;;;;;;;58.60;26.88;;;;;;;0.33;67.53;100334.63;5108668;28;20479;-67
2022/01/24 10:08:15;;;;;;;55.53;25.15;;;;;;;0.26;66.74;100326.44;5108903;28;20503;-69
2022/01/24 10:10:51;;;;;;;51.85;23.98;;;;;;;0.24;66.86;100329.28;5109406;28;20042;-69
2022/01/24 10:16:25;;;;;;;49.88;22.58;;;;;;;0.32;66.91;100319.47;5109729;28;20033;-67
2022/01/24 10:18:57;;;;;;;52.20;23.85;;;;;;;0.35;66.01;100311.00;5110012;28;20039;-70
2022/01/24 10:21:22;;;;;;;73.20;30.15;;;;;;;0.31;65.88;100301.59;5107839;28;20031;-70
2022/01/24 10:23:48;;;;;;;67.10;28.35;;;;;;;0.27;66.03;100307.34;5111631;28;20532;-71
2022/01/24 10:26:13;;;;;;;73.57;30.92;;;;;;;0.28;66.09;100309.03;5110646;28;20024;-72
2022/01/24 10:28:44;;;;;;;64.90;29.13;;;;;;;0.32;65.49;100300.56;5108327;28;20551;-71
2022/01/24 10:31:24;;;;;;;64.00;26.83;;;;;;;0.33;65.79;100302.25;5090288;28;20032;-72
2022/01/24 10:34:03;;;;;;;66.70;28.08;;;;;;;0.26;65.46;100296.75;5107404;28;20098;-72
2022/01/24 10:36:46;;;;;;;50.78;22.77;;;;;;;0.26;65.29;100304.84;5108169;28;20028;-70
2022/01/24 10:39:54;;;;;;;41.00;19.85;;;;;;;0.21;64.47;100305.38;5109564;28;20057;-70
2022/01/24 10:45:21;;;;;;;32.40;15.20;;;;;;;0.17;64.74;100306.78;5113333;28;20065;-70
2022/01/24 10:47:50;;;;;;;40.20;19.20;;;;;;;0.13;64.13;100303.59;5113400;28;20016;-71
2022/01/24 10:50:33;;;;;;;33.23;16.60;;;;;;;0.19;64.82;100296.66;5093847;28;20019;-71
2022/01/24 10:53:12;;;;;;;34.50;17.83;;;;;;;0.29;64.97;100297.22;5114435;28;20084;-70
2022/01/24 10:55:41;;;;;;;41.73;22.47;;;;;;;0.42;64.71;100290.34;5115382;28;20047;-70
2022/01/24 10:58:09;;;;;;;42.58;20.20;;;;;;;0.55;65.31;100292.41;5114811;28;20379;-69
2022/01/24 11:00:36;;;;;;;43.20;21.52;;;;;;;0.69;65.51;100269.13;5115139;28;20047;-71
2022/01/24 11:03:03;;;;;;;45.08;21.05;;;;;;;0.78;64.95;100275.28;5114754;28;20060;-70
2022/01/24 11:05:33;;;;;;;41.35;20.58;;;;;;;0.81;64.90;100264.09;5114761;28;20027;-70
2022/01/24 11:08:02;;;;;;;52.63;25.05;;;;;;;0.76;64.71;100261.13;5096037;28;20483;-69
2022/01/24 11:10:30;;;;;;;62.10;27.27;;;;;;;0.87;65.13;100264.19;5114448;28;20023;-71
2022/01/24 11:12:56;;;;;;;70.47;29.45;;;;;;;0.88;63.94;100246.94;5089243;28;20031;-70
2022/01/24 11:15:23;;;;;;;53.83;25.42;;;;;;;0.86;63.67;100249.00;5114098;28;20609;-73
2022/01/24 11:17:50;;;;;;;70.70;28.17;;;;;;;0.87;64.10;100241.72;5095164;28;20483;-70
2022/01/24 11:20:18;;;;;;;80.63;31.63;;;;;;;0.95;64.10;100248.91;5113900;28;20420;-70
2022/01/24 11:22:58;;;;;;;81.75;33.08;;;;;;;1.01;63.53;100242.75;5114015;28;20059;-71
2022/01/24 11:25:24;;;;;;;;;;;;;;;0.94;62.28;100241.81;5114344;28;20364;-71
2022/01/24 11:27:49;;;;;;;69.32;31.17;;;;;;;0.83;62.31;100237.72;5113611;28;20390;-69
2022/01/24 11:30:21;;;;;;;62.35;27.13;;;;;;;0.82;62.68;100231.50;5113699;28;20042;-70
2022/01/24 11:32:58;;;;;;;59.78;26.77;;;;;;;0.85;62.70;100235.66;5113714;28;20030;-71
2022/01/24 11:35:50;;;;;;;65.63;28.35;;;;;;;1.02;63.73;100236.28;5095361;28;20070;-69
2022/01/24 11:38:42;;;;;;;58.03;26.20;;;;;;;1.14;63.34;100239.34;5113175;28;20020;-73
2022/01/24 11:41:32;;;;;;;52.92;23.13;;;;;;;1.15;63.79;100238.34;5113582;28;20035;-72
2022/01/24 11:44:07;;;;;;;52.95;25.02;;;;;;;1.13;63.14;100238.50;5095241;28;20130;-71
2022/01/24 11:46:43;;;;;;;58.17;26.45;;;;;;;1.22;63.29;100233.84;5110098;28;20112;-72
2022/01/24 11:49:16;;;;;;;56.60;26.48;;;;;;;1.34;63.73;100234.19;5113176;28;20603;-72
2022/01/24 11:51:48;;;;;;;56.22;26.25;;;;;;;1.38;63.16;100230.06;5113660;28;20043;-73
2022/01/24 11:54:30;;;;;;;66.07;28.17;;;;;;;1.40;62.72;100236.13;5113074;28;20023;-69
2022/01/24 11:57:15;;;;;;;80.22;29.73;;;;;;;1.44;63.42;100223.03;5113232;28;20032;-70
2022/01/24 11:59:40;;;;;;;61.17;24.85;;;;;;;1.51;63.21;100231.19;5113248;28;20149;-71
2022/01/24 12:02:10;;;;;;;43.50;19.90;;;;;;;1.61;62.87;100229.88;5113096;28;20027;-70
2022/01/24 12:04:56;;;;;;;45.38;19.02;;;;;;;1.63;62.35;100224.25;5113081;28;20039;-71
2022/01/24 12:07:29;;;;;;;56.17;24.05;;;;;;;1.57;62.17;100225.03;5112841;28;20046;-69
2022/01/24 12:10:16;;;;;;;49.53;22.73;;;;;;;1.53;62.41;100226.44;5094651;28;20366;-69
2022/01/24 12:12:48;;;;;;;46.50;20.95;;;;;;;1.49;61.96;100229.53;5112070;28;20127;-70
2022/01/24 12:15:56;;;;;;;45.45;21.85;;;;;;;1.55;62.66;100232.50;5111354;28;20035;-70
2022/01/24 12:18:42;;;;;;;44.38;20.83;;;;;;;1.47;62.95;100223.47;5009060;28;20042;-70
2022/01/24 12:21:15;;;;;;;42.65;20.48;;;;;;;1.43;62.80;100221.38;4993495;28;20363;-70
2022/01/24 12:23:52;;;;;;;49.38;22.70;;;;;;;1.39;62.58;100215.53;5079454;28;20122;-70
2022/01/24 12:26:17;;;;;;;57.85;26.90;;;;;;;1.53;62.16;100213.78;5111136;28;20497;-71
2022/01/24 12:28:46;;;;;;;64.97;27.75;;;;;;;1.71;62.80;100217.88;5111556;28;20106;-70
2022/01/24 12:31:56;;;;;;;55.38;26.65;;;;;;;1.75;62.85;100214.59;5111238;28;20071;-71
2022/01/24 12:34:27;;;;;;;59.35;26.98;;;;;;;1.70;62.55;100227.00;5077017;28;20043;-70
2022/01/24 12:37:04;;;;;;;60.22;26.98;;;;;;;1.64;61.68;100223.22;5111881;28;20099;-71
2022/01/24 12:39:51;;;;;;;61.58;26.02;;;;;;;1.58;62.46;100214.03;5111960;28;20454;-70
2022/01/24 12:42:56;;;;;;;70.15;30.63;;;;;;;1.64;62.29;100221.34;5112624;28;20049;-71
2022/01/24 12:48:13;;;;;;;60.20;26.02;;;;;;;1.58;62.33;100224.84;5111208;28;20077;-76
2022/01/24 12:50:47;;;;;;;55.42;27.13;;;;;;;1.55;62.39;100205.47;5094099;28;20470;-75
2022/01/24 12:53:14;;;;;;;61.88;27.63;;;;;;;1.58;62.15;100213.19;5091003;28;20051;-75
2022/01/24 12:55:41;;;;;;;62.83;27.80;;;;;;;1.42;61.88;100206.16;5109763;28;20070;-75
2022/01/24 12:58:06;;;;;;;73.25;34.25;;;;;;;1.39;62.06;100198.44;5111028;27;20019;-75
2022/01/24 13:00:32;;;;;;;64.32;31.08;;;;;;;1.42;62.70;100203.47;5106719;28;20085;-72
2022/01/24 13:02:58;;;;;;;137.15;52.00;;;;;;;1.51;62.61;100206.88;5105293;28;20483;-70
2022/01/24 13:05:23;;;;;;;115.93;50.15;;;;;;;1.55;62.73;100206.31;5091635;28;20039;-73
2022/01/24 13:07:52;;;;;;;150.55;60.22;;;;;;;1.50;61.59;100208.75;5110913;28;20030;-73
2022/01/24 13:10:21;;;;;;;80.38;36.10;;;;;;;1.51;62.43;100196.06;5091033;28;20078;-71
2022/01/24 13:13:00;;;;;;;62.22;28.77;;;;;;;1.45;62.19;100212.00;5110423;28;20386;-72
2022/01/24 13:21:11;;;;;;;41.85;20.30;;;;;;;1.59;62.09;100195.94;5110503;28;20101;-70
2022/01/24 13:23:42;;;;;;;53.45;24.48;;;;;;;1.57;61.89;100208.81;5108497;28;20038;-73
2022/01/24 13:26:09;;;;;;;42.03;19.98;;;;;;;1.61;61.43;100194.72;5091958;28;20032;-73